Alcester, South Dakota
Current Conditions -  °F | °C
As of 8:35 AM on Monday 22 Dec 2014 (Local Time) from KLRJ Reporting Station
Haze Haze  
Wind Chill:   Ceiling: 700
Heat Index:   Visibility: 4mi
Dew Point:   Wind: 13mph
Humidity: 100%   Direction: 150°SSE
Pressure: 29.49"   Gusts: NA
Location:  43.02°N, 96.63°W
Report Text: KLRJ 221435Z AUTO 15011KT 4SM BR OVC007 05/05 A2949 RMK AO2
Loading
Personal Weather Stations






























Interactive Weather Map New forecast layout! Learn more

10-Day Weather Forecast

Advertisements
Track Severe Weather on mobile